createdAt,value
2018-06-20T00:00:07.984Z,11.17
2018-06-20T00:02:36.923Z,12.27
2018-06-20T00:05:05.903Z,9.00
2018-06-20T00:07:34.959Z,14.23
2018-06-20T00:10:03.905Z,27.50
2018-06-20T00:12:32.847Z,14.10
2018-06-20T00:15:01.947Z,10.93
2018-06-20T00:17:30.924Z,11.63
2018-06-20T00:19:59.970Z,10.33
2018-06-20T00:22:28.923Z,21.83
2018-06-20T00:24:57.952Z,16.20
2018-06-20T00:27:26.979Z,18.80
2018-06-20T00:29:55.972Z,15.77
2018-06-20T00:32:24.924Z,17.30
2018-06-20T00:34:53.860Z,18.33
2018-06-20T00:37:22.828Z,17.50
2018-06-20T00:39:51.828Z,23.67
2018-06-20T00:42:20.869Z,22.40
2018-06-20T00:44:49.894Z,29.47
2018-06-20T00:47:18.944Z,43.03
2018-06-20T00:49:47.997Z,27.13
2018-06-20T00:52:17.021Z,25.93
2018-06-20T00:54:46.085Z,30.63
2018-06-20T00:57:15.063Z,42.73
2018-06-20T00:59:44.084Z,45.50
2018-06-20T01:02:13.049Z,31.13
2018-06-20T01:04:41.984Z,23.67
2018-06-20T01:07:10.932Z,24.80
2018-06-20T01:09:39.876Z,23.20
2018-06-20T01:12:08.888Z,36.33
2018-06-20T01:14:37.900Z,29.43
2018-06-20T01:17:07.282Z,26.60
2018-06-20T01:19:36.309Z,26.80
2018-06-20T01:22:05.325Z,27.07
2018-06-20T01:24:34.324Z,22.47
2018-06-20T01:27:04.208Z,22.67
2018-06-20T01:29:33.229Z,27.03
2018-06-20T01:32:02.308Z,24.13
2018-06-20T01:34:31.288Z,32.13
2018-06-20T01:37:00.348Z,25.30
2018-06-20T01:39:29.322Z,24.00
2018-06-20T01:41:58.338Z,27.50
2018-06-20T01:44:27.293Z,28.33
2018-06-20T01:46:56.464Z,20.47
2018-06-20T01:49:25.456Z,19.80
2018-06-20T01:51:54.465Z,21.73
2018-06-20T01:54:23.506Z,23.67
2018-06-20T01:56:52.585Z,20.13
2018-06-20T01:59:21.612Z,17.13
2018-06-20T02:01:50.556Z,15.87
2018-06-20T02:04:19.627Z,22.30
2018-06-20T02:06:48.658Z,17.50
2018-06-20T02:09:17.664Z,25.93
2018-06-20T02:11:46.662Z,22.60
2018-06-20T02:14:15.700Z,16.73
2018-06-20T02:16:44.697Z,19.30
2018-06-20T02:19:13.653Z,22.57
2018-06-20T02:21:42.694Z,18.30
2018-06-20T02:24:11.924Z,23.40
2018-06-20T02:26:40.882Z,17.17
2018-06-20T02:29:09.895Z,15.07
2018-06-20T02:31:38.972Z,15.40
2018-06-20T02:34:07.968Z,19.80
2018-06-20T02:36:36.984Z,30.33
2018-06-20T02:39:08.605Z,35.97
2018-06-20T02:41:38.366Z,62.27
2018-06-20T02:44:07.452Z,65.93
2018-06-20T02:46:36.481Z,44.20
2018-06-20T02:49:05.432Z,57.43
2018-06-20T02:51:34.412Z,46.93
2018-06-20T02:54:03.477Z,41.83
2018-06-20T02:56:32.459Z,28.17
2018-06-20T02:59:01.476Z,27.23
2018-06-20T03:01:30.489Z,40.17
2018-06-20T03:03:59.436Z,40.17
2018-06-20T03:06:28.447Z,45.47
2018-06-20T03:09:03.061Z,35.67
2018-06-20T03:11:32.069Z,32.13
2018-06-20T03:14:01.131Z,37.77
2018-06-20T03:16:30.142Z,29.77
2018-06-20T03:18:59.089Z,35.23
2018-06-20T03:21:28.164Z,37.13
2018-06-20T03:23:57.122Z,32.20
2018-06-20T03:26:26.168Z,37.63
2018-06-20T03:28:55.120Z,45.30
2018-06-20T03:31:24.089Z,33.53
2018-06-20T03:33:53.048Z,27.97
2018-06-20T03:36:22.125Z,31.03
2018-06-20T03:38:51.113Z,41.07
2018-06-20T03:41:20.068Z,35.90
2018-06-20T03:43:49.065Z,29.60
2018-06-20T03:46:18.076Z,25.83
2018-06-20T03:48:47.154Z,27.80
2018-06-20T03:51:16.186Z,23.27
2018-06-20T03:53:45.232Z,19.37
2018-06-20T03:56:14.276Z,26.23
2018-06-20T03:58:43.348Z,15.57
2018-06-20T04:01:12.327Z,17.27
2018-06-20T04:03:41.356Z,16.03
2018-06-20T04:06:10.442Z,13.40
2018-06-20T04:08:39.512Z,13.10
2018-06-20T04:11:08.548Z,16.00
2018-06-20T04:13:37.592Z,17.23
2018-06-20T04:16:06.649Z,22.43
2018-06-20T04:18:44.028Z,17.30
2018-06-20T04:21:14.329Z,15.03
2018-06-20T04:23:43.399Z,18.47
2018-06-20T04:26:13.230Z,19.07
2018-06-20T04:28:42.296Z,17.20
2018-06-20T04:31:11.338Z,14.50
2018-06-20T04:33:40.401Z,10.50
2018-06-20T04:36:09.487Z,17.53
2018-06-20T04:38:38.480Z,20.67
2018-06-20T04:41:06.964Z,20.87
2018-06-20T04:43:35.911Z,18.57
2018-06-20T04:46:04.904Z,13.47
2018-06-20T04:48:33.900Z,14.07
2018-06-20T04:51:03.156Z,9.13
2018-06-20T04:53:32.185Z,11.03
2018-06-20T04:56:01.132Z,26.73
2018-06-20T04:58:30.145Z,19.43
2018-06-20T05:00:59.100Z,14.87
2018-06-20T05:03:28.066Z,15.13
2018-06-20T05:05:57.026Z,10.73
2018-06-20T05:08:26.041Z,12.20
2018-06-20T05:10:55.077Z,10.53
2018-06-20T05:13:24.113Z,10.40
2018-06-20T05:15:53.107Z,6.53
2018-06-20T05:18:22.132Z,5.57
2018-06-20T05:20:51.170Z,18.53
2018-06-20T05:23:20.206Z,6.73
2018-06-20T05:25:49.221Z,18.97
2018-06-20T05:28:18.292Z,9.90
2018-06-20T05:30:50.108Z,16.57
2018-06-20T05:33:19.959Z,16.50
2018-06-20T05:35:49.060Z,12.70
2018-06-20T05:38:18.468Z,19.90
2018-06-20T05:40:48.214Z,15.83
2018-06-20T05:43:17.192Z,10.30
2018-06-20T05:45:46.150Z,9.27
2018-06-20T05:48:15.227Z,24.77
2018-06-20T05:50:44.248Z,16.30
2018-06-20T05:53:13.208Z,15.63
2018-06-20T05:55:42.335Z,18.07
2018-06-20T05:58:11.385Z,7.50
2018-06-20T06:00:40.347Z,8.27
2018-06-20T06:03:09.284Z,8.17
2018-06-20T06:05:38.301Z,5.70
2018-06-20T06:08:11.200Z,9.70
2018-06-20T06:10:40.233Z,10.53
2018-06-20T06:13:09.200Z,8.70
2018-06-20T06:15:38.221Z,14.83
2018-06-20T06:18:07.314Z,9.73
2018-06-20T06:20:36.360Z,4.70
2018-06-20T06:23:05.408Z,15.17
2018-06-20T06:25:34.392Z,7.37
2018-06-20T06:28:03.336Z,17.83
2018-06-20T06:30:32.328Z,7.10
2018-06-20T06:33:01.337Z,14.53
2018-06-20T06:35:30.368Z,6.93
2018-06-20T06:37:59.377Z,8.77
2018-06-20T06:40:28.403Z,7.70
2018-06-20T06:42:57.424Z,11.57
2018-06-20T06:45:26.537Z,6.20
2018-06-20T06:47:55.500Z,7.70
2018-06-20T06:50:24.561Z,12.80
2018-06-20T06:52:53.516Z,13.47
2018-06-20T06:55:22.558Z,6.27
2018-06-20T06:57:51.581Z,10.40
2018-06-20T07:00:20.701Z,4.87
2018-06-20T07:02:49.726Z,9.03
2018-06-20T07:05:18.825Z,6.67
2018-06-20T07:07:47.847Z,6.90
2018-06-20T07:10:16.890Z,10.10
2018-06-20T07:12:45.856Z,6.73
2018-06-20T07:15:14.871Z,9.40
2018-06-20T07:17:43.848Z,8.03
2018-06-20T07:20:12.792Z,10.70
2018-06-20T07:22:41.831Z,12.47
2018-06-20T07:25:10.800Z,7.30
2018-06-20T07:27:39.832Z,11.83
2018-06-20T07:30:08.917Z,7.20
2018-06-20T07:32:37.921Z,9.70
2018-06-20T07:35:06.894Z,8.67
2018-06-20T07:37:35.892Z,9.33
2018-06-20T07:40:04.893Z,11.43
2018-06-20T07:42:33.917Z,8.67
2018-06-20T07:45:03.144Z,9.27
2018-06-20T07:47:32.173Z,8.47
2018-06-20T07:50:01.150Z,5.23
2018-06-20T07:52:30.121Z,6.90
2018-06-20T07:54:59.133Z,10.20
2018-06-20T07:57:28.142Z,8.93
2018-06-20T08:00:02.285Z,7.77
2018-06-20T08:02:47.408Z,25.97
2018-06-20T08:05:21.517Z,5.03
2018-06-20T08:07:55.470Z,15.47
2018-06-20T08:10:29.491Z,12.07
2018-06-20T08:13:03.669Z,10.60
2018-06-20T08:15:37.708Z,8.53
2018-06-20T08:18:11.689Z,6.73
2018-06-20T08:20:40.748Z,10.40
2018-06-20T08:23:09.705Z,15.17
2018-06-20T08:25:38.812Z,8.77
2018-06-20T08:28:07.927Z,10.10
2018-06-20T08:30:36.980Z,6.13
2018-06-20T08:33:06.060Z,7.77
2018-06-20T08:35:35.336Z,12.10
2018-06-20T08:38:04.438Z,9.33
2018-06-20T08:40:33.411Z,10.93
2018-06-20T08:43:02.481Z,20.70
2018-06-20T08:45:31.564Z,7.40
2018-06-20T08:48:00.545Z,17.73
2018-06-20T08:50:29.501Z,7.63
2018-06-20T08:52:58.600Z,8.97
2018-06-20T08:55:27.945Z,14.60
2018-06-20T08:57:56.997Z,5.43
2018-06-20T09:00:31.168Z,4.87
2018-06-20T09:03:00.136Z,5.20
2018-06-20T09:05:34.197Z,8.40
2018-06-20T09:08:08.389Z,6.73
2018-06-20T09:10:42.512Z,6.30
2018-06-20T09:13:16.436Z,19.07
2018-06-20T09:15:50.350Z,8.07
2018-06-20T09:18:24.449Z,4.70
2018-06-20T09:20:53.441Z,8.33
2018-06-20T09:23:22.389Z,6.60
2018-06-20T09:25:51.485Z,5.13
2018-06-20T09:28:20.441Z,9.20
2018-06-20T09:30:49.449Z,8.73
2018-06-20T09:33:18.413Z,10.17
2018-06-20T09:35:47.444Z,5.27
2018-06-20T09:38:16.544Z,11.00
2018-06-20T09:40:45.577Z,7.00
2018-06-20T09:43:14.594Z,8.90
2018-06-20T09:45:43.616Z,10.67
2018-06-20T09:48:12.683Z,5.40
2018-06-20T09:50:46.592Z,9.33
2018-06-20T09:53:15.561Z,13.70
2018-06-20T09:55:44.552Z,9.83
2018-06-20T09:58:13.620Z,8.63
2018-06-20T10:00:47.746Z,4.93
2018-06-20T10:04:19.635Z,10.03
2018-06-20T10:06:53.864Z,6.03
2018-06-20T10:09:27.721Z,5.10
2018-06-20T10:12:01.700Z,4.08
2018-06-20T10:14:30.657Z,6.40
2018-06-20T10:16:59.681Z,7.35
2018-06-20T10:19:28.647Z,3.77
2018-06-20T10:21:57.708Z,10.43
2018-06-20T10:24:26.877Z,8.23
2018-06-20T10:26:55.861Z,12.85
2018-06-20T10:29:24.800Z,8.55
2018-06-20T10:31:53.771Z,3.85
2018-06-20T10:34:22.840Z,10.88
2018-06-20T10:36:51.899Z,8.53
2018-06-20T10:39:20.852Z,9.88
2018-06-20T10:41:49.807Z,7.12
2018-06-20T10:44:18.865Z,8.93
2018-06-20T10:46:52.968Z,14.85
2018-06-20T10:49:22.060Z,9.55
2018-06-20T10:51:51.097Z,11.95
2018-06-20T10:54:20.060Z,7.62
2018-06-20T10:56:54.168Z,23.10
2018-06-20T10:59:28.325Z,3.45
2018-06-20T11:03:01.060Z,3.02
2018-06-20T11:05:35.008Z,4.33
2018-06-20T11:09:12.664Z,13.80
2018-06-20T11:12:48.364Z,15.58
2018-06-20T11:15:17.428Z,10.18
2018-06-20T11:17:46.368Z,3.87
2018-06-20T11:20:17.867Z,18.37
2018-06-20T11:22:48.132Z,3.00
2018-06-20T11:25:17.132Z,3.08
2018-06-20T11:27:46.075Z,9.75
2018-06-20T11:30:15.121Z,2.95
2018-06-20T11:32:44.133Z,4.78
2018-06-20T11:35:13.516Z,11.55
2018-06-20T11:37:42.588Z,4.90
2018-06-20T11:40:11.692Z,7.15
2018-06-20T11:42:40.684Z,3.45
2018-06-20T11:45:09.713Z,4.05
2018-06-20T11:47:41.600Z,8.63
2018-06-20T11:50:11.872Z,6.80
2018-06-20T11:52:45.988Z,7.12
2018-06-20T11:55:20.122Z,3.22
2018-06-20T11:57:49.080Z,2.40
2018-06-20T12:00:23.104Z,7.35
2018-06-20T12:02:57.105Z,3.22
2018-06-20T12:05:31.150Z,6.47
2018-06-20T12:08:05.433Z,3.17
2018-06-20T12:10:39.722Z,3.92
2018-06-20T12:13:13.728Z,3.95
2018-06-20T12:15:47.688Z,2.10
2018-06-20T12:18:21.847Z,2.83
2018-06-20T12:20:56.778Z,3.92
2018-06-20T12:23:30.759Z,4.97
2018-06-20T12:26:04.883Z,3.80
2018-06-20T12:28:38.907Z,3.15
2018-06-20T12:31:13.074Z,11.40
2018-06-20T12:33:47.071Z,5.90
2018-06-20T12:36:20.976Z,7.50
2018-06-20T12:38:54.928Z,6.97
2018-06-20T12:41:28.944Z,6.83
2018-06-20T12:44:03.053Z,4.15
2018-06-20T12:47:38.009Z,3.12
2018-06-20T12:50:28.525Z,2.60
2018-06-20T12:52:58.236Z,18.00
2018-06-20T12:55:27.732Z,10.05
2018-06-20T12:57:57.260Z,3.62
2018-06-20T13:00:26.256Z,3.05
2018-06-20T13:02:55.359Z,3.08
2018-06-20T13:05:24.396Z,2.72
2018-06-20T13:07:53.349Z,4.72
2018-06-20T13:10:22.433Z,5.10
2018-06-20T13:12:51.391Z,4.25
2018-06-20T13:15:20.428Z,5.12
2018-06-20T13:17:49.526Z,3.93
2018-06-20T13:20:18.627Z,4.53
2018-06-20T13:22:47.502Z,8.93
2018-06-20T13:25:16.881Z,3.27
2018-06-20T13:27:46.874Z,7.12
2018-06-20T13:30:16.469Z,3.62
2018-06-20T13:32:50.564Z,10.03
2018-06-20T13:35:24.516Z,5.30
2018-06-20T13:37:58.440Z,6.22
2018-06-20T13:40:32.494Z,3.58
2018-06-20T13:44:08.085Z,4.15
2018-06-20T13:46:42.082Z,4.50
2018-06-20T13:49:11.132Z,3.00
2018-06-20T13:51:40.169Z,4.00
2018-06-20T13:54:09.197Z,3.52
2018-06-20T13:56:38.227Z,5.17
2018-06-20T13:59:07.172Z,4.15
2018-06-20T14:01:36.137Z,8.78
2018-06-20T14:04:05.131Z,3.12
2018-06-20T14:06:34.332Z,8.48
2018-06-20T14:09:03.444Z,5.40
2018-06-20T14:11:32.480Z,6.27
2018-06-20T14:14:01.478Z,12.30
2018-06-20T14:16:30.520Z,6.73
2018-06-20T14:18:59.596Z,8.00
2018-06-20T14:21:33.785Z,5.33
2018-06-20T14:24:02.744Z,8.40
2018-06-20T14:26:31.797Z,9.30
2018-06-20T14:29:00.761Z,10.73
2018-06-20T14:31:34.749Z,7.87
2018-06-20T14:34:08.901Z,9.70
2018-06-20T14:36:42.885Z,10.07
2018-06-20T14:39:17.029Z,9.90
2018-06-20T14:41:51.060Z,8.17
2018-06-20T14:44:20.004Z,8.70
2018-06-20T14:46:49.099Z,6.60
2018-06-20T14:49:18.134Z,7.43
2018-06-20T14:51:47.188Z,6.03
2018-06-20T14:54:16.213Z,7.53
2018-06-20T14:56:45.225Z,9.87
2018-06-20T14:59:14.273Z,8.47
2018-06-20T15:01:43.340Z,8.47
2018-06-20T15:04:12.384Z,7.97
2018-06-20T15:06:41.399Z,9.90
2018-06-20T15:09:10.369Z,13.23
2018-06-20T15:11:39.875Z,5.20
2018-06-20T15:14:08.859Z,5.67
2018-06-20T15:16:42.949Z,11.50
2018-06-20T15:19:11.928Z,10.67
2018-06-20T15:21:40.881Z,6.77
2018-06-20T15:24:09.885Z,12.93
2018-06-20T15:26:43.945Z,5.57
2018-06-20T15:30:20.602Z,10.53
2018-06-20T15:32:54.536Z,12.50
2018-06-20T15:35:28.604Z,24.00
2018-06-20T15:38:02.724Z,3.63
2018-06-20T15:40:31.734Z,8.80
2018-06-20T15:43:00.703Z,8.40
2018-06-20T15:45:29.747Z,5.93
2018-06-20T15:47:58.689Z,5.03
2018-06-20T15:50:27.713Z,6.93
2018-06-20T15:52:56.702Z,7.57
2018-06-20T15:55:25.728Z,6.47
2018-06-20T15:57:54.741Z,9.60
2018-06-20T16:00:23.796Z,8.10
2018-06-20T16:02:52.868Z,4.57
2018-06-20T16:05:21.884Z,9.87
2018-06-20T16:07:51.308Z,4.90
2018-06-20T16:10:20.891Z,10.63
2018-06-20T16:12:49.857Z,5.53
2018-06-20T16:15:19.172Z,7.47
2018-06-20T16:17:48.314Z,5.17
2018-06-20T16:20:22.281Z,4.87
2018-06-20T16:22:56.207Z,5.80
2018-06-20T16:25:30.228Z,13.33
2018-06-20T16:28:04.286Z,12.00
2018-06-20T16:30:39.521Z,8.97
2018-06-20T16:33:08.603Z,7.17
2018-06-20T16:35:38.152Z,9.23
2018-06-20T16:38:07.414Z,5.80
2018-06-20T16:40:36.560Z,11.07
2018-06-20T16:43:05.497Z,7.53
2018-06-20T16:45:34.481Z,10.43
2018-06-20T16:48:03.460Z,7.03
2018-06-20T16:50:32.538Z,10.67
2018-06-20T16:53:01.560Z,10.80
2018-06-20T16:55:30.554Z,9.70
2018-06-20T16:57:59.525Z,12.57
2018-06-20T17:00:28.511Z,11.43
2018-06-20T17:02:57.453Z,10.10
2018-06-20T17:05:26.540Z,16.87
2018-06-20T17:07:55.616Z,12.73
2018-06-20T17:10:24.665Z,7.30
2018-06-20T17:12:58.658Z,9.30
2018-06-20T17:15:32.641Z,30.37
2018-06-20T17:18:07.835Z,9.00
2018-06-20T17:20:41.952Z,11.03
2018-06-20T17:23:16.768Z,8.17
2018-06-20T17:25:45.831Z,12.70
2018-06-20T17:28:14.848Z,11.70
2018-06-20T17:30:43.799Z,15.53
2018-06-20T17:33:12.724Z,8.93
2018-06-20T17:35:41.776Z,9.53
2018-06-20T17:38:10.761Z,11.10
2018-06-20T17:40:39.787Z,8.33
2018-06-20T17:43:08.737Z,5.60
2018-06-20T17:45:37.702Z,7.97
2018-06-20T17:48:06.774Z,6.63
2018-06-20T17:50:36.963Z,11.30
2018-06-20T17:53:05.937Z,9.40
2018-06-20T17:55:34.992Z,8.77
2018-06-20T17:58:04.022Z,8.07
2018-06-20T18:00:34.224Z,12.90
2018-06-20T18:03:03.252Z,14.13
2018-06-20T18:05:37.528Z,10.63
2018-06-20T18:08:11.649Z,18.80
2018-06-20T18:11:46.301Z,7.70
2018-06-20T18:14:21.939Z,9.60
2018-06-20T18:17:00.352Z,10.67
2018-06-20T18:19:33.724Z,6.57
2018-06-20T18:22:03.045Z,17.83
2018-06-20T18:24:32.004Z,8.77
2018-06-20T18:27:01.160Z,7.77
2018-06-20T18:29:30.234Z,9.93
2018-06-20T18:31:59.250Z,6.90
2018-06-20T18:34:28.228Z,9.33
2018-06-20T18:36:57.221Z,6.50
2018-06-20T18:39:26.223Z,7.63
2018-06-20T18:41:55.257Z,8.20
2018-06-20T18:44:24.267Z,8.10
2018-06-20T18:46:53.285Z,7.50
2018-06-20T18:49:22.297Z,10.30
2018-06-20T18:51:51.350Z,7.17
2018-06-20T18:54:20.336Z,11.50
2018-06-20T18:56:49.344Z,16.13
2018-06-20T18:59:23.278Z,8.30
2018-06-20T19:01:57.150Z,7.93
2018-06-20T19:04:31.072Z,12.80
2018-06-20T19:07:05.152Z,14.93
2018-06-20T19:09:34.198Z,11.40
2018-06-20T19:12:03.214Z,14.43
2018-06-20T19:14:32.190Z,10.53
2018-06-20T19:17:01.204Z,14.23
2018-06-20T19:19:31.169Z,14.00
2018-06-20T19:22:00.297Z,13.93
2018-06-20T19:24:29.370Z,14.23
2018-06-20T19:26:58.404Z,11.70
2018-06-20T19:29:27.481Z,13.43
2018-06-20T19:31:56.545Z,8.50
2018-06-20T19:34:25.592Z,7.87
2018-06-20T19:36:54.580Z,9.53
2018-06-20T19:39:28.516Z,20.93
2018-06-20T19:41:57.509Z,8.00
2018-06-20T19:44:31.576Z,13.87
2018-06-20T19:47:02.120Z,16.03
2018-06-20T19:49:31.222Z,18.90
2018-06-20T19:52:00.228Z,18.17
2018-06-20T19:54:29.346Z,25.03
2018-06-20T19:56:58.324Z,12.10
2018-06-20T19:59:27.304Z,14.93
2018-06-20T20:01:56.335Z,16.00
2018-06-20T20:04:25.440Z,12.43
2018-06-20T20:06:54.768Z,10.63
2018-06-20T20:09:23.845Z,12.77
2018-06-20T20:11:52.886Z,13.60
2018-06-20T20:14:21.843Z,16.77
2018-06-20T20:16:50.860Z,21.40
2018-06-20T20:19:19.872Z,13.40
2018-06-20T20:21:48.975Z,16.80
2018-06-20T20:24:17.987Z,12.80
2018-06-20T20:26:46.971Z,12.03
2018-06-20T20:29:16.025Z,14.97
2018-06-20T20:31:45.052Z,12.90
2018-06-20T20:34:14.215Z,12.63
2018-06-20T20:36:43.132Z,13.07
2018-06-20T20:39:12.173Z,12.50
2018-06-20T20:41:41.213Z,15.77
2018-06-20T20:44:10.245Z,15.30
2018-06-20T20:46:39.629Z,12.93
2018-06-20T20:49:08.600Z,12.20
2018-06-20T20:51:37.767Z,9.23
2018-06-20T20:54:06.736Z,9.93
2018-06-20T20:56:35.806Z,9.77
2018-06-20T20:59:04.805Z,12.73
2018-06-20T21:01:33.756Z,13.00
2018-06-20T21:04:02.769Z,19.80
2018-06-20T21:06:31.736Z,11.20
2018-06-20T21:09:00.682Z,11.67
2018-06-20T21:11:32.544Z,9.87
2018-06-20T21:14:02.328Z,10.90
2018-06-20T21:16:31.408Z,14.70
2018-06-20T21:19:00.413Z,10.73
2018-06-20T21:21:29.876Z,10.87
2018-06-20T21:23:58.993Z,15.60
2018-06-20T21:26:28.050Z,12.97
2018-06-20T21:28:57.095Z,16.43
2018-06-20T21:31:26.111Z,14.80
2018-06-20T21:33:55.131Z,15.43
2018-06-20T21:36:24.095Z,14.13
2018-06-20T21:38:53.040Z,19.23
2018-06-20T21:41:22.050Z,18.00
2018-06-20T21:43:51.004Z,19.90
2018-06-20T21:46:20.041Z,14.53
2018-06-20T21:48:49.056Z,12.20
2018-06-20T21:51:18.017Z,12.10
2018-06-20T21:53:47.021Z,21.77
2018-06-20T21:56:15.986Z,15.17
2018-06-20T21:58:44.994Z,25.13
2018-06-20T22:01:14.074Z,14.23
2018-06-20T22:03:43.064Z,16.23
2018-06-20T22:06:12.074Z,14.03
2018-06-20T22:08:41.084Z,18.23
2018-06-20T22:11:10.032Z,11.60
2018-06-20T22:13:38.996Z,17.03
2018-06-20T22:16:08.000Z,15.17
2018-06-20T22:18:36.991Z,12.00
2018-06-20T22:21:05.968Z,15.67
2018-06-20T22:23:35.047Z,13.80
2018-06-20T22:26:04.065Z,21.70
2018-06-20T22:28:33.047Z,16.87
2018-06-20T22:31:02.025Z,17.63
2018-06-20T22:33:31.057Z,16.43
2018-06-20T22:36:00.057Z,16.87
2018-06-20T22:38:29.119Z,14.97
2018-06-20T22:40:58.117Z,17.43
2018-06-20T22:43:27.153Z,15.10
2018-06-20T22:45:56.179Z,15.20
2018-06-20T22:48:25.162Z,24.53
2018-06-20T22:50:54.156Z,17.00
2018-06-20T22:53:23.260Z,17.03
2018-06-20T22:55:52.325Z,14.80
2018-06-20T22:58:21.296Z,17.60
2018-06-20T23:00:50.284Z,13.70
2018-06-20T23:03:19.318Z,28.57
2018-06-20T23:05:48.253Z,13.90
2018-06-20T23:08:17.281Z,18.20
2018-06-20T23:10:46.298Z,16.80
2018-06-20T23:13:15.316Z,17.63
2018-06-20T23:15:44.244Z,12.90
2018-06-20T23:18:13.195Z,15.77
2018-06-20T23:20:42.194Z,16.43
2018-06-20T23:23:11.465Z,16.50
2018-06-20T23:25:40.411Z,14.37
2018-06-20T23:28:09.376Z,14.27
2018-06-20T23:30:38.537Z,20.10
2018-06-20T23:33:07.541Z,13.17
2018-06-20T23:35:36.610Z,19.47
2018-06-20T23:38:05.988Z,18.90
2018-06-20T23:40:34.968Z,14.20
2018-06-20T23:43:03.918Z,21.63
2018-06-20T23:45:32.921Z,12.30
2018-06-20T23:48:01.944Z,12.20
2018-06-20T23:50:30.944Z,13.73
2018-06-20T23:52:59.919Z,14.33
2018-06-20T23:55:28.910Z,19.60
2018-06-20T23:57:57.973Z,18.00
